Maratha Promise — V7YE5 — position and weather

sailwx.info

Track history (hours):
 
Tides and Currents Weather Stations Pressure Air Temp Water Temp Dewpoint Dewpoint Depression Visibility Wind Speed Wind Dir Waves Ship Positions

Maratha Promise

Last reported at 2015-Mar-25 18:10 UTC. Time now 2015-Mar-27 08:08 UTC.
Position N 22°36' E 119°42'.

Length 178 m; draft 10 m.

Type: Cargo ship. MMSI: 538004641.

Date/timePositionNaut miles runAvg speedWind from/ knotsBaromVisibWave heightAir tempDewpointWater temp
2015-Mar-25 18:10N 22°36' E 119°42'710.8
2015-Mar-25 17:33N 22°42' E 119°45'1110.9
2015-Mar-25 16:33N 22°52' E 119°50'51410.0
2015-Mar-23 13:19N 31°04' E 122°37'7 8.7
2015-Mar-23 12:33N 31°04' E 122°29'9 9.2
2015-Mar-23 11:33N 31°06' E 122°18'1312.5
2015-Mar-23 10:33N 31°13' E 122°06'1212.0
2015-Mar-23 09:33N 31°16' E 121°53'1312.9
2015-Mar-23 08:33N 31°21' E 121°39'9 9.4
2015-Mar-23 07:33N 31°26' E 121°29'9 9.4
2015-Mar-23 06:33N 31°32' E 121°21'1010.4
2015-Mar-23 05:33N 31°39' E 121°13'1312.6
2015-Mar-23 04:32N 31°47' E 121°00'1212.6
2015-Mar-23 03:33N 31°57' E 120°52'1212.6
2015-Mar-23 02:33N 31°60' E 120°37'9 9.2
2015-Mar-23 01:33N 31°59' E 120°27'1111.2
2015-Mar-23 00:33N 31°56' E 120°14'1010.1
2015-Mar-22 23:33N 31°58' E 120°02'9 9.4
2015-Mar-22 22:33N 32°05' E 119°55'0 0.5
2015-Mar-22 21:28N 32°06' E 119°55'0 0.1
2015-Mar-22 19:28N 32°06' E 119°56'0 0.0
2015-Mar-22 18:22N 32°06' E 119°56'0 0.0
2015-Mar-22 17:28N 32°06' E 119°56'0 0.0
2015-Mar-22 15:22N 32°06' E 119°56'0 0.0
2015-Mar-22 14:10N 32°06' E 119°56'0 0.0
2015-Mar-22 13:28N 32°06' E 119°56'0 0.3
2015-Mar-22 12:33N 32°06' E 119°55'12 9.4
2015-Mar-22 11:19N 32°17' E 119°51'  
Track history (hours):
 
Tides and Currents Weather Stations Pressure Air Temp Water Temp Dewpoint Dewpoint Depression Visibility Wind Speed Wind Dir Waves Ship Positions

Maratha Promise

Last reported at 2015-Mar-25 18:10 UTC. Time now 2015-Mar-27 08:08 UTC.
Position N 22°36' E 119°42'.

Length 178 m; draft 10 m.

Type: Cargo ship. MMSI: 538004641.

Date/timePositionNaut miles runAvg speedWind from/ knotsBaromVisibWave heightAir tempDewpointWater temp
2015-Mar-25 18:10N 22°36' E 119°42'710.8
2015-Mar-25 17:33N 22°42' E 119°45'1110.9
2015-Mar-25 16:33N 22°52' E 119°50'51410.0
2015-Mar-23 13:19N 31°04' E 122°37'7 8.7
2015-Mar-23 12:33N 31°04' E 122°29'9 9.2
2015-Mar-23 11:33N 31°06' E 122°18'1312.5
2015-Mar-23 10:33N 31°13' E 122°06'1212.0
2015-Mar-23 09:33N 31°16' E 121°53'1312.9
2015-Mar-23 08:33N 31°21' E 121°39'9 9.4
2015-Mar-23 07:33N 31°26' E 121°29'9 9.4
2015-Mar-23 06:33N 31°32' E 121°21'1010.4
2015-Mar-23 05:33N 31°39' E 121°13'1312.6
2015-Mar-23 04:32N 31°47' E 121°00'1212.6
2015-Mar-23 03:33N 31°57' E 120°52'1212.6
2015-Mar-23 02:33N 31°60' E 120°37'9 9.2
2015-Mar-23 01:33N 31°59' E 120°27'1111.2
2015-Mar-23 00:33N 31°56' E 120°14'1010.1
2015-Mar-22 23:33N 31°58' E 120°02'9 9.4
2015-Mar-22 22:33N 32°05' E 119°55'0 0.5
2015-Mar-22 21:28N 32°06' E 119°55'0 0.1
2015-Mar-22 19:28N 32°06' E 119°56'0 0.0
2015-Mar-22 18:22N 32°06' E 119°56'0 0.0
2015-Mar-22 17:28N 32°06' E 119°56'0 0.0
2015-Mar-22 15:22N 32°06' E 119°56'0 0.0
2015-Mar-22 14:10N 32°06' E 119°56'0 0.0
2015-Mar-22 13:28N 32°06' E 119°56'0 0.3
2015-Mar-22 12:33N 32°06' E 119°55'12 9.4
2015-Mar-22 11:19N 32°17' E 119°51'  

Dump ship's entire track history